sensor_id;sensor_type;location;lat;lon;timestamp;pressure;altitude;pressure_sealevel;temperature;humidity
20228;BME280;12195;55.790;37.572;2022-08-03T00:00:46;99811.67;;;20.74;54.25
20228;BME280;12195;55.790;37.572;2022-08-03T00:03:18;99803.80;;;20.73;54.28
20228;BME280;12195;55.790;37.572;2022-08-03T00:05:52;99802.45;;;20.69;54.53
20228;BME280;12195;55.790;37.572;2022-08-03T00:08:26;99809.87;;;20.65;54.98
20228;BME280;12195;55.790;37.572;2022-08-03T00:10:58;99810.02;;;20.63;55.05
20228;BME280;12195;55.790;37.572;2022-08-03T00:13:30;99805.95;;;20.59;55.34
20228;BME280;12195;55.790;37.572;2022-08-03T00:16:03;99805.27;;;20.58;55.38
20228;BME280;12195;55.790;37.572;2022-08-03T00:18:35;99811.60;;;20.57;55.33
20228;BME280;12195;55.790;37.572;2022-08-03T00:21:07;99810.89;;;20.54;55.68
20228;BME280;12195;55.790;37.572;2022-08-03T00:23:40;99813.84;;;20.51;55.62
20228;BME280;12195;55.790;37.572;2022-08-03T00:26:13;99814.01;;;20.50;55.83
20228;BME280;12195;55.790;37.572;2022-08-03T00:28:46;99821.30;;;20.48;55.89
20228;BME280;12195;55.790;37.572;2022-08-03T00:31:18;99818.91;;;20.45;56.03
20228;BME280;12195;55.790;37.572;2022-08-03T00:33:52;99814.70;;;20.42;56.44
20228;BME280;12195;55.790;37.572;2022-08-03T00:36:26;99814.02;;;20.40;56.31
20228;BME280;12195;55.790;37.572;2022-08-03T00:38:58;99803.63;;;20.37;56.25
20228;BME280;12195;55.790;37.572;2022-08-03T00:41:30;99820.63;;;20.36;56.51
20228;BME280;12195;55.790;37.572;2022-08-03T00:44:03;99815.56;;;20.33;56.58
20228;BME280;12195;55.790;37.572;2022-08-03T00:46:35;99810.81;;;20.27;56.88
20228;BME280;12195;55.790;37.572;2022-08-03T00:49:07;99817.25;;;20.25;56.87
20228;BME280;12195;55.790;37.572;2022-08-03T00:51:39;99811.37;;;20.21;57.09
20228;BME280;12195;55.790;37.572;2022-08-03T00:54:12;99807.30;;;20.17;57.35
20228;BME280;12195;55.790;37.572;2022-08-03T00:56:45;99803.95;;;20.15;57.36
20228;BME280;12195;55.790;37.572;2022-08-03T00:59:19;99801.55;;;20.12;57.56
20228;BME280;12195;55.790;37.572;2022-08-03T01:01:53;99795.50;;;20.10;57.40
20228;BME280;12195;55.790;37.572;2022-08-03T01:04:25;99803.64;;;20.09;57.51
20228;BME280;12195;55.790;37.572;2022-08-03T01:07:12;99805.86;;;20.04;57.78
20228;BME280;12195;55.790;37.572;2022-08-03T01:10:00;99794.65;;;20.00;57.84
20228;BME280;12195;55.790;37.572;2022-08-03T01:12:47;99791.57;;;19.95;58.04
20228;BME280;12195;55.790;37.572;2022-08-03T01:15:47;99800.52;;;19.94;58.19
20228;BME280;12195;55.790;37.572;2022-08-03T01:18:25;99800.83;;;19.91;58.28
20228;BME280;12195;55.790;37.572;2022-08-03T01:20:57;99789.58;;;19.88;58.31
20228;BME280;12195;55.790;37.572;2022-08-03T01:23:44;99797.72;;;19.86;58.33
20228;BME280;12195;55.790;37.572;2022-08-03T01:29:08;99798.84;;;19.84;58.34
20228;BME280;12195;55.790;37.572;2022-08-03T01:31:58;99796.34;;;19.82;58.23
20228;BME280;12195;55.790;37.572;2022-08-03T01:34:35;99801.67;;;19.82;58.33
20228;BME280;12195;55.790;37.572;2022-08-03T01:37:09;99805.30;;;19.81;58.31
20228;BME280;12195;55.790;37.572;2022-08-03T01:39:42;99810.49;;;19.83;58.82
20228;BME280;12195;55.790;37.572;2022-08-03T01:42:16;99816.83;;;19.91;58.26
20228;BME280;12195;55.790;37.572;2022-08-03T01:44:50;99807.27;;;19.98;58.01
20228;BME280;12195;55.790;37.572;2022-08-03T01:47:23;99811.64;;;19.99;57.96
20228;BME280;12195;55.790;37.572;2022-08-03T01:49:57;99810.23;;;19.95;58.24
20228;BME280;12195;55.790;37.572;2022-08-03T01:52:32;99809.65;;;19.92;58.32
20228;BME280;12195;55.790;37.572;2022-08-03T01:55:06;99805.58;;;19.88;58.43
20228;BME280;12195;55.790;37.572;2022-08-03T01:57:40;99811.05;;;19.86;58.54
20228;BME280;12195;55.790;37.572;2022-08-03T02:00:16;99813.88;;;19.85;58.63
20228;BME280;12195;55.790;37.572;2022-08-03T02:02:50;99807.00;;;19.82;58.71
20228;BME280;12195;55.790;37.572;2022-08-03T02:05:24;99812.34;;;19.82;58.65
20228;BME280;12195;55.790;37.572;2022-08-03T02:07:58;99805.16;;;19.83;58.65
20228;BME280;12195;55.790;37.572;2022-08-03T02:10:32;99811.48;;;19.82;58.69
20228;BME280;12195;55.790;37.572;2022-08-03T02:13:07;99813.02;;;19.84;58.71
20228;BME280;12195;55.790;37.572;2022-08-03T02:15:40;99812.03;;;19.85;58.60
20228;BME280;12195;55.790;37.572;2022-08-03T02:18:14;99813.44;;;19.89;58.61
20228;BME280;12195;55.790;37.572;2022-08-03T02:20:47;99818.23;;;19.95;58.62
20228;BME280;12195;55.790;37.572;2022-08-03T02:23:21;99822.00;;;20.02;58.35
20228;BME280;12195;55.790;37.572;2022-08-03T02:26:01;99821.59;;;20.07;58.27
20228;BME280;12195;55.790;37.572;2022-08-03T02:28:33;99822.89;;;20.12;58.12
20228;BME280;12195;55.790;37.572;2022-08-03T02:31:12;99820.49;;;20.19;57.74
20228;BME280;12195;55.790;37.572;2022-08-03T02:33:48;99825.25;;;20.25;57.63
20228;BME280;12195;55.790;37.572;2022-08-03T02:36:29;99832.56;;;20.32;57.46
20228;BME280;12195;55.790;37.572;2022-08-03T02:39:03;99827.50;;;20.39;57.25
20228;BME280;12195;55.790;37.572;2022-08-03T02:41:42;99830.98;;;20.49;57.70
20228;BME280;12195;55.790;37.572;2022-08-03T02:44:23;99824.51;;;20.51;57.40
20228;BME280;12195;55.790;37.572;2022-08-03T02:47:04;99824.95;;;20.57;57.62
20228;BME280;12195;55.790;37.572;2022-08-03T02:49:36;99824.95;;;20.57;57.23
20228;BME280;12195;55.790;37.572;2022-08-03T02:52:11;99827.30;;;20.59;56.84
20228;BME280;12195;55.790;37.572;2022-08-03T02:54:48;99833.76;;;20.67;57.04
20228;BME280;12195;55.790;37.572;2022-08-03T02:57:22;99829.53;;;20.74;57.09
20228;BME280;12195;55.790;37.572;2022-08-03T02:59:55;99825.27;;;20.81;57.02
20228;BME280;12195;55.790;37.572;2022-08-03T03:02:30;99826.67;;;20.85;56.72
20228;BME280;12195;55.790;37.572;2022-08-03T03:05:03;99829.66;;;20.91;56.66
20228;BME280;12195;55.790;37.572;2022-08-03T03:07:37;99842.13;;;21.00;56.10
20228;BME280;12195;55.790;37.572;2022-08-03T03:10:12;99837.33;;;21.04;56.05
20228;BME280;12195;55.790;37.572;2022-08-03T03:12:45;99843.91;;;21.09;55.71
20228;BME280;12195;55.790;37.572;2022-08-03T03:15:17;99838.15;;;21.14;55.55
20228;BME280;12195;55.790;37.572;2022-08-03T03:17:51;99835.72;;;21.20;55.23
20228;BME280;12195;55.790;37.572;2022-08-03T03:20:24;99843.84;;;21.28;54.93
20228;BME280;12195;55.790;37.572;2022-08-03T03:22:59;99841.24;;;21.36;54.59
20228;BME280;12195;55.790;37.572;2022-08-03T03:25:33;99842.91;;;21.47;54.41
20228;BME280;12195;55.790;37.572;2022-08-03T03:28:07;99844.53;;;21.57;54.20
20228;BME280;12195;55.790;37.572;2022-08-03T03:30:41;99845.30;;;21.67;53.89
20228;BME280;12195;55.790;37.572;2022-08-03T03:33:14;99853.67;;;21.82;53.51
20228;BME280;12195;55.790;37.572;2022-08-03T03:35:47;99846.82;;;21.97;53.10
20228;BME280;12195;55.790;37.572;2022-08-03T03:38:20;99849.33;;;22.16;52.66
20228;BME280;12195;55.790;37.572;2022-08-03T03:40:52;99844.52;;;22.37;52.14
20228;BME280;12195;55.790;37.572;2022-08-03T03:43:25;99847.18;;;22.54;51.77
20228;BME280;12195;55.790;37.572;2022-08-03T03:46:00;99840.58;;;22.66;51.49
20228;BME280;12195;55.790;37.572;2022-08-03T03:48:33;99843.62;;;22.71;51.41
20228;BME280;12195;55.790;37.572;2022-08-03T03:51:06;99841.48;;;22.75;51.21
20228;BME280;12195;55.790;37.572;2022-08-03T03:53:38;99844.38;;;22.81;51.13
20228;BME280;12195;55.790;37.572;2022-08-03T03:56:11;99839.53;;;22.85;50.92
20228;BME280;12195;55.790;37.572;2022-08-03T03:58:45;99841.90;;;22.88;50.76
20228;BME280;12195;55.790;37.572;2022-08-03T04:01:18;99842.56;;;22.90;50.80
20228;BME280;12195;55.790;37.572;2022-08-03T04:03:50;99846.25;;;22.89;50.79
20228;BME280;12195;55.790;37.572;2022-08-03T04:06:23;99840.89;;;22.89;50.71
20228;BME280;12195;55.790;37.572;2022-08-03T04:09:13;99849.98;;;22.96;50.73
20228;BME280;12195;55.790;37.572;2022-08-03T04:12:04;99846.35;;;23.05;50.62
20228;BME280;12195;55.790;37.572;2022-08-03T04:14:38;99853.81;;;23.19;50.18
20228;BME280;12195;55.790;37.572;2022-08-03T04:17:11;99852.72;;;23.29;50.08
20228;BME280;12195;55.790;37.572;2022-08-03T04:19:47;99857.11;;;23.38;49.67
20228;BME280;12195;55.790;37.572;2022-08-03T04:22:24;99855.66;;;23.52;49.42
20228;BME280;12195;55.790;37.572;2022-08-03T04:25:02;99864.40;;;23.62;48.95
20228;BME280;12195;55.790;37.572;2022-08-03T04:27:37;99861.44;;;23.73;48.79
20228;BME280;12195;55.790;37.572;2022-08-03T04:30:10;99861.80;;;23.86;48.69
20228;BME280;12195;55.790;37.572;2022-08-03T04:32:44;99857.49;;;23.93;48.54
20228;BME280;12195;55.790;37.572;2022-08-03T04:35:19;99856.50;;;24.02;48.34
20228;BME280;12195;55.790;37.572;2022-08-03T04:37:55;99858.67;;;24.06;48.33
20228;BME280;12195;55.790;37.572;2022-08-03T04:40:35;99852.66;;;24.12;48.29
20228;BME280;12195;55.790;37.572;2022-08-03T04:43:02;99858.38;;;24.33;47.65
20228;BME280;12195;55.790;37.572;2022-08-03T04:45:36;99857.52;;;24.25;47.93
20228;BME280;12195;55.790;37.572;2022-08-03T04:48:13;99855.36;;;24.28;48.06
20228;BME280;12195;55.790;37.572;2022-08-03T04:50:46;99854.18;;;24.31;47.73
20228;BME280;12195;55.790;37.572;2022-08-03T04:53:19;99858.86;;;24.37;47.76
20228;BME280;12195;55.790;37.572;2022-08-03T04:55:53;99860.05;;;24.42;47.73
20228;BME280;12195;55.790;37.572;2022-08-03T04:58:25;99862.57;;;24.52;47.45
20228;BME280;12195;55.790;37.572;2022-08-03T05:00:58;99854.52;;;24.60;47.33
20228;BME280;12195;55.790;37.572;2022-08-03T05:03:30;99863.45;;;24.68;46.94
20228;BME280;12195;55.790;37.572;2022-08-03T05:06:03;99857.38;;;24.74;46.87
20228;BME280;12195;55.790;37.572;2022-08-03T05:08:38;99862.06;;;24.80;46.84
20228;BME280;12195;55.790;37.572;2022-08-03T05:11:20;99856.51;;;24.90;46.72
20228;BME280;12195;55.790;37.572;2022-08-03T05:13:47;99853.47;;;25.01;46.80
20228;BME280;12195;55.790;37.572;2022-08-03T05:16:20;99855.80;;;25.12;46.30
20228;BME280;12195;55.790;37.572;2022-08-03T05:18:52;99858.64;;;25.19;46.08
20228;BME280;12195;55.790;37.572;2022-08-03T05:21:25;99854.94;;;25.28;45.83
20228;BME280;12195;55.790;37.572;2022-08-03T05:23:59;99853.58;;;25.32;45.57
20228;BME280;12195;55.790;37.572;2022-08-03T05:26:32;99855.91;;;25.43;45.48
20228;BME280;12195;55.790;37.572;2022-08-03T05:29:04;99864.92;;;25.50;45.65
20228;BME280;12195;55.790;37.572;2022-08-03T05:31:37;99866.59;;;25.59;45.50
20228;BME280;12195;55.790;37.572;2022-08-03T05:34:10;99867.03;;;25.70;45.45
20228;BME280;12195;55.790;37.572;2022-08-03T05:36:43;99871.70;;;25.76;45.35
20228;BME280;12195;55.790;37.572;2022-08-03T05:39:16;99864.95;;;25.80;45.27
20228;BME280;12195;55.790;37.572;2022-08-03T05:41:48;99870.97;;;25.90;44.61
20228;BME280;12195;55.790;37.572;2022-08-03T05:44:21;99871.59;;;26.00;44.37
20228;BME280;12195;55.790;37.572;2022-08-03T05:46:55;99869.53;;;26.10;43.94
20228;BME280;12195;55.790;37.572;2022-08-03T05:49:29;99864.56;;;26.22;43.83
20228;BME280;12195;55.790;37.572;2022-08-03T05:52:03;99864.97;;;26.33;42.94
20228;BME280;12195;55.790;37.572;2022-08-03T05:54:37;99871.44;;;26.47;43.38
20228;BME280;12195;55.790;37.572;2022-08-03T05:57:11;99869.52;;;26.55;43.28
20228;BME280;12195;55.790;37.572;2022-08-03T05:59:44;99868.47;;;26.64;43.46
20228;BME280;12195;55.790;37.572;2022-08-03T06:02:19;99875.16;;;26.68;43.04
20228;BME280;12195;55.790;37.572;2022-08-03T06:04:51;99868.22;;;26.74;42.87
20228;BME280;12195;55.790;37.572;2022-08-03T06:07:24;99868.22;;;26.74;42.95
20228;BME280;12195;55.790;37.572;2022-08-03T06:09:56;99866.34;;;26.74;42.45
20228;BME280;12195;55.790;37.572;2022-08-03T06:12:31;99871.83;;;26.81;42.28
20228;BME280;12195;55.790;37.572;2022-08-03T06:15:06;99865.91;;;26.85;42.21
20228;BME280;12195;55.790;37.572;2022-08-03T06:17:48;99863.31;;;26.92;42.01
20228;BME280;12195;55.790;37.572;2022-08-03T06:20:21;99865.47;;;26.96;41.89
20228;BME280;12195;55.790;37.572;2022-08-03T06:22:57;99855.98;;;27.00;41.67
20228;BME280;12195;55.790;37.572;2022-08-03T06:25:31;99859.81;;;27.35;40.73
20228;BME280;12195;55.790;37.572;2022-08-03T06:28:04;99866.18;;;27.92;39.87
20228;BME280;12195;55.790;37.572;2022-08-03T06:30:38;99867.21;;;28.47;38.94
20228;BME280;12195;55.790;37.572;2022-08-03T06:33:12;99866.76;;;28.92;38.05
20228;BME280;12195;55.790;37.572;2022-08-03T06:35:46;99864.44;;;29.10;37.58
20228;BME280;12195;55.790;37.572;2022-08-03T06:38:18;99866.11;;;29.11;37.89
20228;BME280;12195;55.790;37.572;2022-08-03T06:40:50;99869.16;;;29.02;38.10
20228;BME280;12195;55.790;37.572;2022-08-03T06:43:23;99878.33;;;28.80;38.17
20228;BME280;12195;55.790;37.572;2022-08-03T06:45:56;99872.20;;;28.71;37.61
20228;BME280;12195;55.790;37.572;2022-08-03T06:48:30;99869.64;;;28.63;37.83
20228;BME280;12195;55.790;37.572;2022-08-03T06:51:02;99871.06;;;28.59;37.16
20228;BME280;12195;55.790;37.572;2022-08-03T06:53:36;99866.02;;;28.50;37.96
20228;BME280;12195;55.790;37.572;2022-08-03T06:56:09;99868.05;;;28.48;37.73
20228;BME280;12195;55.790;37.572;2022-08-03T06:58:41;99878.02;;;28.47;37.03
20228;BME280;12195;55.790;37.572;2022-08-03T07:01:14;99873.46;;;28.48;36.23
20228;BME280;12195;55.790;37.572;2022-08-03T07:03:48;99866.83;;;28.50;36.82
20228;BME280;12195;55.790;37.572;2022-08-03T07:06:22;99874.13;;;28.50;36.23
20228;BME280;12195;55.790;37.572;2022-08-03T07:08:54;99873.66;;;28.46;36.56
20228;BME280;12195;55.790;37.572;2022-08-03T07:11:28;99883.84;;;28.44;37.15
20228;BME280;12195;55.790;37.572;2022-08-03T07:14:00;99881.31;;;28.64;37.75
20228;BME280;12195;55.790;37.572;2022-08-03T07:16:33;99875.12;;;28.49;36.41
20228;BME280;12195;55.790;37.572;2022-08-03T07:19:06;99875.98;;;28.49;36.57
20228;BME280;12195;55.790;37.572;2022-08-03T07:21:38;99880.28;;;28.44;35.75
20228;BME280;12195;55.790;37.572;2022-08-03T07:24:11;99875.92;;;28.43;36.02
20228;BME280;12195;55.790;37.572;2022-08-03T07:26:45;99880.34;;;28.50;36.20
20228;BME280;12195;55.790;37.572;2022-08-03T07:29:18;99876.41;;;28.53;35.34
20228;BME280;12195;55.790;37.572;2022-08-03T07:31:50;99872.30;;;28.57;36.00
20228;BME280;12195;55.790;37.572;2022-08-03T07:34:22;99881.44;;;28.56;35.64
20228;BME280;12195;55.790;37.572;2022-08-03T07:36:55;99882.53;;;28.61;34.96
20228;BME280;12195;55.790;37.572;2022-08-03T07:39:28;99881.69;;;28.61;33.74
20228;BME280;12195;55.790;37.572;2022-08-03T07:42:01;99884.39;;;28.61;33.95
20228;BME280;12195;55.790;37.572;2022-08-03T07:44:34;99882.16;;;28.64;33.20
20228;BME280;12195;55.790;37.572;2022-08-03T07:47:07;99886.91;;;28.62;31.37
20228;BME280;12195;55.790;37.572;2022-08-03T07:49:42;99884.20;;;28.62;32.28
20228;BME280;12195;55.790;37.572;2022-08-03T07:52:15;99893.16;;;28.63;31.68
20228;BME280;12195;55.790;37.572;2022-08-03T07:55:06;99883.62;;;28.67;31.59
20228;BME280;12195;55.790;37.572;2022-08-03T07:57:39;99886.77;;;28.70;31.65
20228;BME280;12195;55.790;37.572;2022-08-03T08:00:15;99886.00;;;28.76;31.33
20228;BME280;12195;55.790;37.572;2022-08-03T08:02:48;99896.22;;;28.81;31.20
20228;BME280;12195;55.790;37.572;2022-08-03T08:05:21;99890.48;;;28.90;31.15
20228;BME280;12195;55.790;37.572;2022-08-03T08:07:54;99902.46;;;29.02;31.29
20228;BME280;12195;55.790;37.572;2022-08-03T08:10:27;99901.93;;;29.13;31.42
20228;BME280;12195;55.790;37.572;2022-08-03T08:13:00;99898.33;;;29.06;30.72
20228;BME280;12195;55.790;37.572;2022-08-03T08:15:34;99899.38;;;29.05;30.72
20228;BME280;12195;55.790;37.572;2022-08-03T08:18:08;99895.23;;;29.09;31.18
20228;BME280;12195;55.790;37.572;2022-08-03T08:20:41;99892.39;;;29.18;31.32
20228;BME280;12195;55.790;37.572;2022-08-03T08:23:15;99899.11;;;29.28;32.61
20228;BME280;12195;55.790;37.572;2022-08-03T08:25:51;99885.27;;;29.44;31.48
20228;BME280;12195;55.790;37.572;2022-08-03T08:28:24;99892.38;;;29.52;30.90
20228;BME280;12195;55.790;37.572;2022-08-03T08:30:58;99890.48;;;29.52;31.28
20228;BME280;12195;55.790;37.572;2022-08-03T08:33:30;99890.48;;;29.52;31.61
20228;BME280;12195;55.790;37.572;2022-08-03T08:36:06;99889.67;;;29.52;30.95
20228;BME280;12195;55.790;37.572;2022-08-03T08:38:40;99880.89;;;29.50;30.48
20228;BME280;12195;55.790;37.572;2022-08-03T08:41:14;99893.19;;;29.52;30.50
20228;BME280;12195;55.790;37.572;2022-08-03T08:43:46;99883.86;;;29.55;30.12
20228;BME280;12195;55.790;37.572;2022-08-03T08:46:19;99887.45;;;29.62;30.34
20228;BME280;12195;55.790;37.572;2022-08-03T08:48:53;99885.84;;;29.74;30.47
20228;BME280;12195;55.790;37.572;2022-08-03T08:51:29;99882.98;;;29.88;30.02
20228;BME280;12195;55.790;37.572;2022-08-03T08:54:06;99877.38;;;29.96;29.81
20228;BME280;12195;55.790;37.572;2022-08-03T08:56:39;99886.17;;;30.05;29.98
20228;BME280;12195;55.790;37.572;2022-08-03T08:59:11;99881.39;;;30.13;29.77
20228;BME280;12195;55.790;37.572;2022-08-03T09:01:44;99879.97;;;30.17;29.81
20228;BME280;12195;55.790;37.572;2022-08-03T09:04:17;99888.55;;;30.21;29.31
20228;BME280;12195;55.790;37.572;2022-08-03T09:06:49;99882.09;;;30.28;30.69
20228;BME280;12195;55.790;37.572;2022-08-03T09:09:23;99893.14;;;30.27;29.84
20228;BME280;12195;55.790;37.572;2022-08-03T09:11:56;99895.87;;;30.40;30.90
20228;BME280;12195;55.790;37.572;2022-08-03T09:14:30;99888.69;;;30.06;29.90
20228;BME280;12195;55.790;37.572;2022-08-03T09:17:05;99882.42;;;30.06;29.94
20228;BME280;12195;55.790;37.572;2022-08-03T09:20:08;99879.09;;;30.04;29.99
20228;BME280;12195;55.790;37.572;2022-08-03T09:22:53;99879.37;;;30.22;29.79
20228;BME280;12195;55.790;37.572;2022-08-03T09:25:35;99877.33;;;30.37;30.02
20228;BME280;12195;55.790;37.572;2022-08-03T09:28:13;99884.67;;;30.69;30.14
20228;BME280;12195;55.790;37.572;2022-08-03T09:30:59;99885.28;;;31.03;29.80
20228;BME280;12195;55.790;37.572;2022-08-03T09:33:32;99890.71;;;31.36;29.49
20228;BME280;12195;55.790;37.572;2022-08-03T09:36:08;99882.27;;;31.63;28.84
20228;BME280;12195;55.790;37.572;2022-08-03T09:38:41;99884.97;;;31.76;28.76
20228;BME280;12195;55.790;37.572;2022-08-03T09:41:18;99877.80;;;31.88;28.24
20228;BME280;12195;55.790;37.572;2022-08-03T09:43:53;99873.98;;;32.02;28.31
20228;BME280;12195;55.790;37.572;2022-08-03T09:46:26;99886.27;;;32.11;28.16
20228;BME280;12195;55.790;37.572;2022-08-03T09:49:12;99885.00;;;32.14;28.15
20228;BME280;12195;55.790;37.572;2022-08-03T09:51:46;99892.52;;;32.12;28.15
20228;BME280;12195;55.790;37.572;2022-08-03T09:54:30;99884.37;;;32.12;28.29
20228;BME280;12195;55.790;37.572;2022-08-03T09:57:05;99884.78;;;32.15;28.30
20228;BME280;12195;55.790;37.572;2022-08-03T09:59:38;99877.45;;;32.16;27.88
20228;BME280;12195;55.790;37.572;2022-08-03T10:02:22;99868.27;;;32.17;27.90
20228;BME280;12195;55.790;37.572;2022-08-03T10:04:55;99874.94;;;32.52;29.03
20228;BME280;12195;55.790;37.572;2022-08-03T10:07:28;99880.11;;;32.29;27.85
20228;BME280;12195;55.790;37.572;2022-08-03T10:10:04;99880.74;;;32.31;28.26
20228;BME280;12195;55.790;37.572;2022-08-03T10:12:40;99878.46;;;32.21;28.32
20228;BME280;12195;55.790;37.572;2022-08-03T10:15:13;99883.98;;;32.08;28.44
20228;BME280;12195;55.790;37.572;2022-08-03T10:17:55;99884.62;;;32.04;28.66
20228;BME280;12195;55.790;37.572;2022-08-03T10:20:22;99879.00;;;31.99;28.82
20228;BME280;12195;55.790;37.572;2022-08-03T10:22:55;99883.94;;;32.15;28.94
20228;BME280;12195;55.790;37.572;2022-08-03T10:25:33;99878.83;;;32.38;28.36
20228;BME280;12195;55.790;37.572;2022-08-03T10:28:17;99884.50;;;32.61;28.10
20228;BME280;12195;55.790;37.572;2022-08-03T10:30:54;99884.86;;;32.71;27.41
20228;BME280;12195;55.790;37.572;2022-08-03T10:33:33;99876.23;;;32.80;27.22
20228;BME280;12195;55.790;37.572;2022-08-03T10:36:08;99886.65;;;32.83;27.24
20228;BME280;12195;55.790;37.572;2022-08-03T10:38:48;99885.02;;;32.76;26.80
20228;BME280;12195;55.790;37.572;2022-08-03T10:41:31;99895.10;;;33.00;28.09
20228;BME280;12195;55.790;37.572;2022-08-03T10:44:05;99883.48;;;32.55;27.63
20228;BME280;12195;55.790;37.572;2022-08-03T10:46:40;99880.44;;;32.45;27.54
20228;BME280;12195;55.790;37.572;2022-08-03T10:49:16;99897.66;;;32.33;27.80
20228;BME280;12195;55.790;37.572;2022-08-03T10:51:50;99898.52;;;32.27;28.03
20228;BME280;12195;55.790;37.572;2022-08-03T10:54:41;99899.78;;;32.31;27.96
20228;BME280;12195;55.790;37.572;2022-08-03T10:57:52;99887.85;;;32.25;28.13
20228;BME280;12195;55.790;37.572;2022-08-03T11:00:27;99889.97;;;32.23;27.65
20228;BME280;12195;55.790;37.572;2022-08-03T11:03:11;99893.96;;;32.21;27.55
20228;BME280;12195;55.790;37.572;2022-08-03T11:05:47;99889.38;;;32.15;27.43
20228;BME280;12195;55.790;37.572;2022-08-03T11:08:24;99897.96;;;32.12;27.68
20228;BME280;12195;55.790;37.572;2022-08-03T11:10:58;99888.53;;;32.14;27.32
20228;BME280;12195;55.790;37.572;2022-08-03T11:13:31;99888.27;;;32.29;27.12
20228;BME280;12195;55.790;37.572;2022-08-03T11:16:17;99884.48;;;32.36;27.03
20228;BME280;12195;55.790;37.572;2022-08-03T11:18:55;99878.78;;;32.44;26.66
20228;BME280;12195;55.790;37.572;2022-08-03T11:27:16;99891.09;;;32.47;26.95
20228;BME280;12195;55.790;37.572;2022-08-03T11:35:24;99891.52;;;33.24;26.49
20228;BME280;12195;55.790;37.572;2022-08-03T11:38:01;99887.17;;;33.16;26.30
20228;BME280;12195;55.790;37.572;2022-08-03T11:40:37;99893.53;;;33.10;26.32
20228;BME280;12195;55.790;37.572;2022-08-03T11:46:13;99888.94;;;32.86;26.54
20228;BME280;12195;55.790;37.572;2022-08-03T11:48:52;99883.79;;;32.72;27.05
20228;BME280;12195;55.790;37.572;2022-08-03T11:51:30;99893.50;;;32.61;27.30
20228;BME280;12195;55.790;37.572;2022-08-03T11:56:56;99895.95;;;32.69;27.64
20228;BME280;12195;55.790;37.572;2022-08-03T11:59:33;99882.61;;;32.30;27.70
20228;BME280;12195;55.790;37.572;2022-08-03T12:02:12;99880.97;;;32.23;27.92
20228;BME280;12195;55.790;37.572;2022-08-03T12:04:50;99885.60;;;32.16;27.71
20228;BME280;12195;55.790;37.572;2022-08-03T12:07:23;99882.50;;;32.12;28.00
20228;BME280;12195;55.790;37.572;2022-08-03T12:10:13;99881.47;;;32.07;28.19
20228;BME280;12195;55.790;37.572;2022-08-03T12:12:53;99878.41;;;31.97;27.47
20228;BME280;12195;55.790;37.572;2022-08-03T12:15:30;99880.91;;;31.98;28.02
20228;BME280;12195;55.790;37.572;2022-08-03T12:18:16;99877.34;;;31.98;28.28
20228;BME280;12195;55.790;37.572;2022-08-03T12:20:50;99876.47;;;32.04;28.33
20228;BME280;12195;55.790;37.572;2022-08-03T12:23:23;99877.27;;;32.11;28.39
20228;BME280;12195;55.790;37.572;2022-08-03T12:26:00;99873.32;;;32.07;28.37
20228;BME280;12195;55.790;37.572;2022-08-03T12:28:32;99882.83;;;32.29;28.44
20228;BME280;12195;55.790;37.572;2022-08-03T12:31:07;99877.48;;;32.09;28.01
20228;BME280;12195;55.790;37.572;2022-08-03T12:33:58;99867.71;;;32.02;28.05
20228;BME280;12195;55.790;37.572;2022-08-03T12:36:34;99874.00;;;31.96;28.13
20228;BME280;12195;55.790;37.572;2022-08-03T12:39:08;99867.78;;;31.89;28.21
20228;BME280;12195;55.790;37.572;2022-08-03T12:41:41;99870.53;;;31.82;28.62
20228;BME280;12195;55.790;37.572;2022-08-03T12:44:13;99871.77;;;31.73;27.97
20228;BME280;12195;55.790;37.572;2022-08-03T12:46:46;99877.23;;;31.67;28.25
20228;BME280;12195;55.790;37.572;2022-08-03T12:49:20;99873.88;;;31.78;28.30
20228;BME280;12195;55.790;37.572;2022-08-03T12:51:56;99877.80;;;31.88;27.95
20228;BME280;12195;55.790;37.572;2022-08-03T12:54:30;99873.57;;;31.99;27.78
20228;BME280;12195;55.790;37.572;2022-08-03T12:57:07;99869.38;;;32.03;27.74
20228;BME280;12195;55.790;37.572;2022-08-03T12:59:41;99879.43;;;31.96;27.54
20228;BME280;12195;55.790;37.572;2022-08-03T13:02:24;99879.50;;;31.83;27.61
20228;BME280;12195;55.790;37.572;2022-08-03T13:04:58;99875.75;;;31.71;28.36
20228;BME280;12195;55.790;37.572;2022-08-03T13:07:38;99881.03;;;31.59;28.70
20228;BME280;12195;55.790;37.572;2022-08-03T13:10:07;99873.14;;;31.45;28.55
20228;BME280;12195;55.790;37.572;2022-08-03T13:12:47;99872.50;;;31.43;29.20
20228;BME280;12195;55.790;37.572;2022-08-03T13:15:20;99880.67;;;31.36;29.02
20228;BME280;12195;55.790;37.572;2022-08-03T13:17:55;99872.10;;;31.39;28.55
20228;BME280;12195;55.790;37.572;2022-08-03T13:20:27;99883.77;;;31.53;28.72
20228;BME280;12195;55.790;37.572;2022-08-03T13:23:00;99884.56;;;31.66;28.79
20228;BME280;12195;55.790;37.572;2022-08-03T13:25:32;99869.30;;;31.78;28.18
20228;BME280;12195;55.790;37.572;2022-08-03T13:28:04;99873.64;;;31.86;28.27
20228;BME280;12195;55.790;37.572;2022-08-03T13:30:38;99872.97;;;31.97;27.89
20228;BME280;12195;55.790;37.572;2022-08-03T13:33:12;99873.50;;;32.12;27.75
20228;BME280;12195;55.790;37.572;2022-08-03T13:35:44;99877.41;;;32.22;27.93
20228;BME280;12195;55.790;37.572;2022-08-03T13:38:17;99867.53;;;32.34;27.49
20228;BME280;12195;55.790;37.572;2022-08-03T13:40:51;99872.06;;;32.47;27.89
20228;BME280;12195;55.790;37.572;2022-08-03T13:43:24;99877.40;;;32.60;27.78
20228;BME280;12195;55.790;37.572;2022-08-03T13:45:56;99868.06;;;32.74;27.36
20228;BME280;12195;55.790;37.572;2022-08-03T13:48:29;99872.39;;;32.88;27.49
20228;BME280;12195;55.790;37.572;2022-08-03T13:51:03;99871.97;;;33.09;26.79